Time,TemperatureF,DewpointF,PressureIn,WindDirection,WindDirectionDegrees,WindSpeedMPH,WindSpeedGustMPH,Humidity,HourlyPrecipIn,Conditions,Clouds,dailyrainin,SoftwareType,DateUTC
2013-06-15 00:00:00,59.1,55.2,27.18,NW,306,0.0,0.0,87,0.00,,,0.04,Wunderground v.1.15,2013-06-15 04:00:00,
2013-06-15 00:03:00,59.4,55.2,27.18,NW,315,0.0,-999.0,86,0.00,,,0.00,Wunderground v.1.15,2013-06-15 04:03:00,
2013-06-15 00:05:00,59.3,55.4,27.18,NW,306,0.0,0.0,87,0.00,,,0.00,Wunderground v.1.15,2013-06-15 04:05:00,
2013-06-15 00:08:00,59.4,55.2,27.18,NW,315,0.0,-999.0,86,0.00,,,0.00,Wunderground v.1.15,2013-06-15 04:08:00,
2013-06-15 00:10:00,59.3,55.1,27.18,NW,306,0.0,0.0,86,0.00,,,0.00,Wunderground v.1.15,2013-06-15 04:10:00,
2013-06-15 00:13:00,59.4,55.2,27.18,NW,315,0.0,-999.0,86,0.00,,,0.00,Wunderground v.1.15,2013-06-15 04:13:00,
2013-06-15 00:15:00,59.3,55.1,27.18,NW,306,0.0,0.0,86,0.00,,,0.00,Wunderground v.1.15,2013-06-15 04:15:00,
2013-06-15 00:18:00,59.4,55.2,27.18,NW,315,0.0,-999.0,86,0.00,,,0.00,Wunderground v.1.15,2013-06-15 04:18:00,
2013-06-15 00:20:00,59.4,55.2,27.18,NW,306,0.0,0.0,86,0.00,,,0.00,Wunderground v.1.15,2013-06-15 04:20:00,
2013-06-15 00:23:00,59.4,55.2,27.18,NW,315,0.0,-999.0,86,0.00,,,0.00,Wunderground v.1.15,2013-06-15 04:23:00,
2013-06-15 00:25:00,59.4,55.2,27.18,NW,306,0.0,0.0,86,0.00,,,0.00,Wunderground v.1.15,2013-06-15 04:25:00,
2013-06-15 00:28:00,59.4,55.2,27.18,NW,315,0.0,-999.0,86,0.00,,,0.00,Wunderground v.1.15,2013-06-15 04:28:00,
2013-06-15 00:30:00,59.5,55.3,27.18,NW,306,0.0,0.0,86,0.00,,,0.00,Wunderground v.1.15,2013-06-15 04:30:00,
2013-06-15 00:33:00,59.4,55.2,27.18,NW,315,0.0,-999.0,86,0.00,,,0.00,Wunderground v.1.15,2013-06-15 04:33:00,
2013-06-15 00:35:00,59.3,55.1,27.18,NW,306,0.0,0.0,86,0.00,,,0.00,Wunderground v.1.15,2013-06-15 04:35:00,
2013-06-15 00:38:00,59.4,55.2,27.18,NW,315,0.0,-999.0,86,0.00,,,0.00,Wunderground v.1.15,2013-06-15 04:38:00,
2013-06-15 00:40:00,59.0,54.8,27.18,NW,306,0.0,0.0,86,0.00,,,0.00,Wunderground v.1.15,2013-06-15 04:40:00,
2013-06-15 00:43:00,59.4,55.2,27.18,NW,315,0.0,-999.0,86,0.00,,,0.00,Wunderground v.1.15,2013-06-15 04:43:00,
2013-06-15 00:48:00,58.8,55.3,27.18,NW,315,0.0,-999.0,88,0.00,,,0.00,Wunderground v.1.15,2013-06-15 04:48:00,
2013-06-15 00:50:00,58.8,54.9,27.18,NW,306,0.0,0.0,87,0.00,,,0.00,Wunderground v.1.15,2013-06-15 04:50:00,
2013-06-15 00:53:00,58.8,55.3,27.18,NW,315,0.0,-999.0,88,0.00,,,0.00,Wunderground v.1.15,2013-06-15 04:53:00,
2013-06-15 00:55:00,58.5,55.0,27.18,NW,306,0.0,0.0,88,0.00,,,0.00,Wunderground v.1.15,2013-06-15 04:55:00,
2013-06-15 00:58:00,58.8,55.3,27.18,NW,315,0.0,-999.0,88,0.00,,,0.00,Wunderground v.1.15,2013-06-15 04:58:00,
2013-06-15 01:00:00,58.1,54.6,27.18,NW,306,0.0,0.0,88,0.00,,,0.00,Wunderground v.1.15,2013-06-15 05:00:00,
2013-06-15 01:03:00,58.8,55.3,27.18,NW,315,0.0,-999.0,88,0.00,,,0.00,Wunderground v.1.15,2013-06-15 05:03:00,
2013-06-15 01:08:00,58.8,55.3,27.18,NW,315,0.0,-999.0,88,0.00,,,0.00,Wunderground v.1.15,2013-06-15 05:08:00,
2013-06-15 01:10:00,57.6,54.4,27.18,NW,306,0.0,0.0,89,0.00,,,0.00,Wunderground v.1.15,2013-06-15 05:10:00,
2013-06-15 01:13:00,58.8,55.3,27.18,NW,315,0.0,-999.0,88,0.00,,,0.00,Wunderground v.1.15,2013-06-15 05:13:00,
2013-06-15 01:15:00,57.3,54.1,27.18,NW,306,0.0,0.0,89,0.00,,,0.00,Wunderground v.1.15,2013-06-15 05:15:00,
2013-06-15 01:18:00,57.3,54.4,27.18,N/A,-737280,0.0,-999.0,90,0.00,,,0.00,Wunderground v.1.15,2013-06-15 05:18:00,
2013-06-15 01:23:00,57.3,54.4,27.18,N/A,-737280,0.0,-999.0,90,0.00,,,0.00,Wunderground v.1.15,2013-06-15 05:23:00,
2013-06-15 01:25:00,56.9,54.0,27.18,NW,306,0.0,0.0,90,0.00,,,0.00,Wunderground v.1.15,2013-06-15 05:25:00,
2013-06-15 01:28:00,57.3,54.4,27.18,N/A,-737280,0.0,-999.0,90,0.00,,,0.00,Wunderground v.1.15,2013-06-15 05:28:00,
2013-06-15 01:30:00,56.6,53.7,27.18,NW,306,0.0,0.0,90,0.00,,,0.00,Wunderground v.1.15,2013-06-15 05:30:00,
2013-06-15 01:33:00,57.3,54.4,27.18,N/A,-737280,0.0,-999.0,90,0.00,,,0.00,Wunderground v.1.15,2013-06-15 05:33:00,
2013-06-15 01:38:00,57.3,54.4,27.18,N/A,-737280,0.0,-999.0,90,0.00,,,0.00,Wunderground v.1.15,2013-06-15 05:38:00,
2013-06-15 01:40:00,56.2,53.3,27.18,NW,306,0.0,0.0,90,0.00,,,0.00,Wunderground v.1.15,2013-06-15 05:40:00,
2013-06-15 01:43:00,57.3,54.4,27.18,N/A,-737280,0.0,-999.0,90,0.00,,,0.00,Wunderground v.1.15,2013-06-15 05:43:00,
2013-06-15 01:45:00,56.0,53.4,27.18,NW,306,0.0,0.0,91,0.00,,,0.00,Wunderground v.1.15,2013-06-15 05:45:00,
2013-06-15 01:48:00,55.9,53.3,27.18,N/A,-737280,0.0,-999.0,91,0.00,,,0.00,Wunderground v.1.15,2013-06-15 05:48:00,
2013-06-15 01:50:00,55.7,53.1,27.18,NW,306,0.0,0.0,91,0.00,,,0.00,Wunderground v.1.15,2013-06-15 05:50:00,
2013-06-15 01:53:00,55.9,53.3,27.18,N/A,-737280,0.0,-999.0,91,0.00,,,0.00,Wunderground v.1.15,2013-06-15 05:53:00,
2013-06-15 01:58:00,55.9,53.3,27.18,N/A,-737280,0.0,-999.0,91,0.00,,,0.00,Wunderground v.1.15,2013-06-15 05:58:00,
2013-06-15 02:00:00,55.4,52.8,27.18,NW,306,0.0,0.0,91,0.00,,,0.00,Wunderground v.1.15,2013-06-15 06:00:00,
2013-06-15 02:03:00,55.9,53.3,27.18,N/A,-737280,0.0,-999.0,91,0.00,,,0.00,Wunderground v.1.15,2013-06-15 06:03:00,
2013-06-15 02:05:00,55.2,52.6,27.18,NW,306,0.0,0.0,91,0.00,,,0.00,Wunderground v.1.15,2013-06-15 06:05:00,
2013-06-15 02:08:00,55.9,53.3,27.18,N/A,-737280,0.0,-999.0,91,0.00,,,0.00,Wunderground v.1.15,2013-06-15 06:08:00,
2013-06-15 02:13:00,55.9,53.3,27.18,N/A,-737280,0.0,-999.0,91,0.00,,,0.00,Wunderground v.1.15,2013-06-15 06:13:00,
2013-06-15 02:15:00,54.9,52.3,27.18,NW,306,0.0,0.0,91,0.00,,,0.00,Wunderground v.1.15,2013-06-15 06:15:00,
2013-06-15 02:18:00,54.9,52.6,27.18,N/A,-737280,0.0,-999.0,92,0.00,,,0.00,Wunderground v.1.15,2013-06-15 06:18:00,
2013-06-15 02:20:00,54.8,52.5,27.18,NW,306,0.0,0.0,92,0.00,,,0.00,Wunderground v.1.15,2013-06-15 06:20:00,
2013-06-15 02:23:00,54.9,52.6,27.18,N/A,-737280,0.0,-999.0,92,0.00,,,0.00,Wunderground v.1.15,2013-06-15 06:23:00,
2013-06-15 02:25:00,54.7,52.4,27.18,NW,306,0.0,0.0,92,0.00,,,0.00,Wunderground v.1.15,2013-06-15 06:25:00,
2013-06-15 02:28:00,54.9,52.6,27.18,N/A,-737280,0.0,-999.0,92,0.00,,,0.00,Wunderground v.1.15,2013-06-15 06:28:00,
2013-06-15 02:30:00,54.7,52.4,27.18,NW,306,0.0,0.0,92,0.00,,,0.00,Wunderground v.1.15,2013-06-15 06:30:00,
2013-06-15 02:33:00,54.9,52.6,27.18,N/A,-737280,0.0,-999.0,92,0.00,,,0.00,Wunderground v.1.15,2013-06-15 06:33:00,
2013-06-15 02:38:00,54.9,52.6,27.18,N/A,-737280,0.0,-999.0,92,0.00,,,0.00,Wunderground v.1.15,2013-06-15 06:38:00,
2013-06-15 02:40:00,54.6,52.3,27.18,NW,306,0.0,0.0,92,0.00,,,0.00,Wunderground v.1.15,2013-06-15 06:40:00,
2013-06-15 02:43:00,54.9,52.6,27.18,N/A,-737280,0.0,-999.0,92,0.00,,,0.00,Wunderground v.1.15,2013-06-15 06:43:00,
2013-06-15 02:45:00,54.6,52.3,27.18,NW,306,0.0,0.0,92,0.00,,,0.00,Wunderground v.1.15,2013-06-15 06:45:00,
2013-06-15 02:48:00,54.7,52.7,27.18,NW,315,0.0,-999.0,93,0.00,,,0.00,Wunderground v.1.15,2013-06-15 06:48:00,
2013-06-15 02:53:00,54.7,52.7,27.18,NW,315,0.0,-999.0,93,0.00,,,0.00,Wunderground v.1.15,2013-06-15 06:53:00,
2013-06-15 02:55:00,54.8,52.8,27.18,NW,306,0.0,0.0,93,0.00,,,0.00,Wunderground v.1.15,2013-06-15 06:55:00,
2013-06-15 02:58:00,54.7,52.7,27.18,NW,315,0.0,-999.0,93,0.00,,,0.00,Wunderground v.1.15,2013-06-15 06:58:00,
2013-06-15 03:00:00,55.0,53.0,27.18,NW,306,0.0,0.0,93,0.00,,,0.00,Wunderground v.1.15,2013-06-15 07:00:00,
2013-06-15 03:03:00,54.7,52.7,27.18,NW,315,0.0,-999.0,93,0.00,,,0.00,Wunderground v.1.15,2013-06-15 07:03:00,
2013-06-15 03:08:00,54.7,52.7,27.18,NW,315,0.0,-999.0,93,0.00,,,0.00,Wunderground v.1.15,2013-06-15 07:08:00,
2013-06-15 03:10:00,55.5,53.5,27.18,NW,306,0.0,0.0,93,0.00,,,0.00,Wunderground v.1.15,2013-06-15 07:10:00,
2013-06-15 03:13:00,54.7,52.7,27.18,NW,315,0.0,-999.0,93,0.00,,,0.00,Wunderground v.1.15,2013-06-15 07:13:00,
2013-06-15 03:15:00,55.7,53.7,27.18,NW,306,0.0,0.0,93,0.00,,,0.00,Wunderground v.1.15,2013-06-15 07:15:00,
2013-06-15 03:18:00,55.6,53.3,27.18,NW,315,0.0,-999.0,92,0.00,,,0.00,Wunderground v.1.15,2013-06-15 07:18:00,
2013-06-15 03:23:00,55.6,53.3,27.18,NW,315,0.0,-999.0,92,0.00,,,0.00,Wunderground v.1.15,2013-06-15 07:23:00,
2013-06-15 03:25:00,55.9,53.6,27.18,NW,306,0.0,0.0,92,0.00,,,0.00,Wunderground v.1.15,2013-06-15 07:25:00,
2013-06-15 03:28:00,55.6,53.3,27.18,NW,315,0.0,-999.0,92,0.00,,,0.00,Wunderground v.1.15,2013-06-15 07:28:00,
2013-06-15 03:30:00,55.8,53.5,27.18,NW,306,0.0,0.0,92,0.00,,,0.00,Wunderground v.1.15,2013-06-15 07:30:00,
2013-06-15 03:33:00,55.6,53.3,27.18,NW,315,0.0,-999.0,92,0.00,,,0.00,Wunderground v.1.15,2013-06-15 07:33:00,
2013-06-15 03:35:00,55.7,53.4,27.18,NW,306,0.0,0.0,92,0.00,,,0.00,Wunderground v.1.15,2013-06-15 07:35:00,
2013-06-15 03:38:00,55.6,53.3,27.18,NW,315,0.0,-999.0,92,0.00,,,0.00,Wunderground v.1.15,2013-06-15 07:38:00,
2013-06-15 03:43:00,55.6,53.3,27.18,NW,315,0.0,-999.0,92,0.00,,,0.00,Wunderground v.1.15,2013-06-15 07:43:00,
2013-06-15 03:45:00,55.6,53.3,27.18,NW,306,0.0,0.0,92,0.00,,,0.00,Wunderground v.1.15,2013-06-15 07:45:00,
2013-06-15 03:48:00,55.5,53.2,27.18,N/A,-737280,0.0,-999.0,92,0.00,,,0.00,Wunderground v.1.15,2013-06-15 07:48:00,
2013-06-15 03:50:00,55.5,53.2,27.18,NW,306,0.0,0.0,92,0.00,,,0.00,Wunderground v.1.15,2013-06-15 07:50:00,
2013-06-15 03:53:00,55.5,53.2,27.18,N/A,-737280,0.0,-999.0,92,0.00,,,0.00,Wunderground v.1.15,2013-06-15 07:53:00,
2013-06-15 03:55:00,55.4,53.1,27.18,NW,306,0.0,0.0,92,0.00,,,0.00,Wunderground v.1.15,2013-06-15 07:55:00,
2013-06-15 03:58:00,55.5,53.2,27.18,N/A,-737280,0.0,-999.0,92,0.00,,,0.00,Wunderground v.1.15,2013-06-15 07:58:00,
2013-06-15 04:03:00,55.5,53.2,27.18,N/A,-737280,0.0,-999.0,92,0.00,,,0.00,Wunderground v.1.15,2013-06-15 08:03:00,
2013-06-15 04:05:00,55.0,52.7,27.18,NW,306,0.0,0.0,92,0.00,,,0.00,Wunderground v.1.15,2013-06-15 08:05:00,
2013-06-15 04:08:00,55.5,53.2,27.18,N/A,-737280,0.0,-999.0,92,0.00,,,0.00,Wunderground v.1.15,2013-06-15 08:08:00,
2013-06-15 04:10:00,54.9,52.6,27.18,NW,306,0.0,0.0,92,0.00,,,0.00,Wunderground v.1.15,2013-06-15 08:10:00,
2013-06-15 04:13:00,55.5,53.2,27.18,N/A,-737280,0.0,-999.0,92,0.00,,,0.00,Wunderground v.1.15,2013-06-15 08:13:00,
2013-06-15 04:15:00,54.7,52.4,27.18,NW,306,0.0,0.0,92,0.00,,,0.00,Wunderground v.1.15,2013-06-15 08:15:00,
2013-06-15 04:18:00,54.7,52.4,27.18,N/A,-737280,0.0,-999.0,92,0.00,,,0.00,Wunderground v.1.15,2013-06-15 08:18:00,
2013-06-15 04:23:00,54.7,52.4,27.18,N/A,-737280,0.0,-999.0,92,0.00,,,0.00,Wunderground v.1.15,2013-06-15 08:23:00,
2013-06-15 04:25:00,54.4,52.1,27.18,NW,306,0.0,0.0,92,0.00,,,0.00,Wunderground v.1.15,2013-06-15 08:25:00,
2013-06-15 04:28:00,54.7,52.4,27.18,N/A,-737280,0.0,-999.0,92,0.00,,,0.00,Wunderground v.1.15,2013-06-15 08:28:00,
2013-06-15 04:30:00,54.2,51.9,27.18,NW,306,0.0,0.0,92,0.00,,,0.00,Wunderground v.1.15,2013-06-15 08:30:00,
2013-06-15 04:33:00,54.7,52.4,27.18,N/A,-737280,0.0,-999.0,92,0.00,,,0.00,Wunderground v.1.15,2013-06-15 08:33:00,
2013-06-15 04:38:00,54.7,52.4,27.18,N/A,-737280,0.0,-999.0,92,0.00,,,0.00,Wunderground v.1.15,2013-06-15 08:38:00,
2013-06-15 04:40:00,54.0,51.7,27.18,NW,306,0.0,0.0,92,0.00,,,0.00,Wunderground v.1.15,2013-06-15 08:40:00,
2013-06-15 04:43:00,54.7,52.4,27.18,N/A,-737280,0.0,-999.0,92,0.00,,,0.00,Wunderground v.1.15,2013-06-15 08:43:00,
2013-06-15 04:45:00,54.0,52.0,27.18,NW,306,0.0,0.0,93,0.00,,,0.00,Wunderground v.1.15,2013-06-15 08:45:00,
2013-06-15 04:48:00,54.0,52.0,27.18,N/A,-737280,0.0,-999.0,93,0.00,,,0.00,Wunderground v.1.15,2013-06-15 08:48:00,
2013-06-15 04:53:00,54.0,52.0,27.18,N/A,-737280,0.0,-999.0,93,0.00,,,0.00,Wunderground v.1.15,2013-06-15 08:53:00,
2013-06-15 04:55:00,53.9,51.9,27.18,NW,306,0.0,0.0,93,0.00,,,0.00,Wunderground v.1.15,2013-06-15 08:55:00,
2013-06-15 04:58:00,54.0,52.0,27.18,N/A,-737280,0.0,-999.0,93,0.00,,,0.00,Wunderground v.1.15,2013-06-15 08:58:00,
2013-06-15 05:00:00,53.8,51.8,27.18,NW,306,0.0,0.0,93,0.00,,,0.00,Wunderground v.1.15,2013-06-15 09:00:00,
2013-06-15 05:03:00,54.0,52.0,27.18,N/A,-737280,0.0,-999.0,93,0.00,,,0.00,Wunderground v.1.15,2013-06-15 09:03:00,
2013-06-15 05:08:00,54.0,52.0,27.18,N/A,-737280,0.0,-999.0,93,0.00,,,0.00,Wunderground v.1.15,2013-06-15 09:08:00,
2013-06-15 05:10:00,53.6,51.6,27.18,NW,306,0.0,0.0,93,0.00,,,0.00,Wunderground v.1.15,2013-06-15 09:10:00,
2013-06-15 05:13:00,54.0,52.0,27.18,N/A,-737280,0.0,-999.0,93,0.00,,,0.00,Wunderground v.1.15,2013-06-15 09:13:00,
2013-06-15 05:15:00,53.5,51.5,27.18,NW,306,0.0,0.0,93,0.00,,,0.00,Wunderground v.1.15,2013-06-15 09:15:00,
2013-06-15 05:18:00,53.5,51.5,27.18,N/A,-737280,0.0,-999.0,93,0.00,,,0.00,Wunderground v.1.15,2013-06-15 09:18:00,
2013-06-15 05:20:00,53.5,51.5,27.18,NW,306,0.0,0.0,93,0.00,,,0.00,Wunderground v.1.15,2013-06-15 09:20:00,
2013-06-15 05:23:00,53.5,51.5,27.18,N/A,-737280,0.0,-999.0,93,0.00,,,0.00,Wunderground v.1.15,2013-06-15 09:23:00,
2013-06-15 05:25:00,53.4,51.4,27.18,NW,306,0.0,0.0,93,0.00,,,0.00,Wunderground v.1.15,2013-06-15 09:25:00,
2013-06-15 05:28:00,53.5,51.5,27.18,N/A,-737280,0.0,-999.0,93,0.00,,,0.00,Wunderground v.1.15,2013-06-15 09:28:00,
2013-06-15 05:33:00,53.5,51.5,27.18,N/A,-737280,0.0,-999.0,93,0.00,,,0.00,Wunderground v.1.15,2013-06-15 09:33:00,
2013-06-15 05:35:00,53.5,51.5,27.18,NW,306,0.0,0.0,93,0.00,,,0.00,Wunderground v.1.15,2013-06-15 09:35:00,
2013-06-15 05:38:00,53.5,51.5,27.18,N/A,-737280,0.0,-999.0,93,0.00,,,0.00,Wunderground v.1.15,2013-06-15 09:38:00,
2013-06-15 05:40:00,53.5,51.8,27.18,NW,306,0.0,0.0,94,0.00,,,0.00,Wunderground v.1.15,2013-06-15 09:40:00,
2013-06-15 05:43:00,53.5,51.5,27.18,N/A,-737280,0.0,-999.0,93,0.00,,,0.00,Wunderground v.1.15,2013-06-15 09:43:00,
2013-06-15 05:45:00,53.5,51.8,27.18,NW,306,0.0,0.0,94,0.00,,,0.00,Wunderground v.1.15,2013-06-15 09:45:00,
2013-06-15 05:48:00,53.5,51.8,27.18,N/A,-737280,0.0,-999.0,94,0.00,,,0.00,Wunderground v.1.15,2013-06-15 09:48:00,
2013-06-15 05:53:00,53.5,51.8,27.18,N/A,-737280,0.0,-999.0,94,0.00,,,0.00,Wunderground v.1.15,2013-06-15 09:53:00,
2013-06-15 05:55:00,53.5,51.8,27.18,NW,306,0.0,0.0,94,0.00,,,0.00,Wunderground v.1.15,2013-06-15 09:55:00,
2013-06-15 05:58:00,53.5,51.8,27.18,N/A,-737280,0.0,-999.0,94,0.00,,,0.00,Wunderground v.1.15,2013-06-15 09:58:00,
2013-06-15 06:00:00,53.4,51.7,27.18,NW,306,0.0,0.0,94,0.00,,,0.00,Wunderground v.1.15,2013-06-15 10:00:00,
2013-06-15 06:03:00,53.5,51.8,27.18,N/A,-737280,0.0,-999.0,94,0.00,,,0.00,Wunderground v.1.15,2013-06-15 10:03:00,
2013-06-15 06:08:00,53.5,51.8,27.18,N/A,-737280,0.0,-999.0,94,0.00,,,0.00,Wunderground v.1.15,2013-06-15 10:08:00,
2013-06-15 06:10:00,53.3,51.6,27.18,NW,306,0.0,0.0,94,0.00,,,0.00,Wunderground v.1.15,2013-06-15 10:10:00,
2013-06-15 06:13:00,53.5,51.8,27.18,N/A,-737280,0.0,-999.0,94,0.00,,,0.00,Wunderground v.1.15,2013-06-15 10:13:00,
2013-06-15 06:15:00,53.3,51.6,27.18,NW,306,0.0,0.0,94,0.00,,,0.00,Wunderground v.1.15,2013-06-15 10:15:00,
2013-06-15 06:18:00,53.5,51.8,27.18,N/A,-737280,0.0,-999.0,94,0.00,,,0.00,Wunderground v.1.15,2013-06-15 10:18:00,
2013-06-15 06:23:00,53.5,51.8,27.18,N/A,-737280,0.0,-999.0,94,0.00,,,0.00,Wunderground v.1.15,2013-06-15 10:23:00,
2013-06-15 06:25:00,53.6,51.9,27.18,NW,306,0.0,0.0,94,0.00,,,0.00,Wunderground v.1.15,2013-06-15 10:25:00,
2013-06-15 06:28:00,53.5,51.8,27.18,N/A,-737280,0.0,-999.0,94,0.00,,,0.00,Wunderground v.1.15,2013-06-15 10:28:00,
2013-06-15 06:30:00,53.8,52.1,27.18,NW,306,0.0,0.0,94,0.00,,,0.00,Wunderground v.1.15,2013-06-15 10:30:00,
2013-06-15 06:33:00,53.5,51.8,27.18,N/A,-737280,0.0,-999.0,94,0.00,,,0.00,Wunderground v.1.15,2013-06-15 10:33:00,
2013-06-15 06:38:00,53.5,51.8,27.18,N/A,-737280,0.0,-999.0,94,0.00,,,0.00,Wunderground v.1.15,2013-06-15 10:38:00,
2013-06-15 06:40:00,54.3,52.6,27.18,NW,306,0.0,0.0,94,0.00,,,0.00,Wunderground v.1.15,2013-06-15 10:40:00,
2013-06-15 06:43:00,53.5,51.8,27.18,N/A,-737280,0.0,-999.0,94,0.00,,,0.00,Wunderground v.1.15,2013-06-15 10:43:00,
2013-06-15 06:45:00,54.7,53.0,27.18,NW,306,0.0,0.0,94,0.00,,,0.00,Wunderground v.1.15,2013-06-15 10:45:00,
2013-06-15 06:48:00,55.2,53.8,27.18,NW,315,0.0,-999.0,95,0.00,,,0.00,Wunderground v.1.15,2013-06-15 10:48:00,
2013-06-15 06:50:00,55.3,53.6,27.18,NW,306,0.0,0.0,94,0.00,,,0.00,Wunderground v.1.15,2013-06-15 10:50:00,
2013-06-15 06:53:00,55.2,53.8,27.18,NW,315,0.0,-999.0,95,0.00,,,0.00,Wunderground v.1.15,2013-06-15 10:53:00,
2013-06-15 06:55:00,56.7,55.3,27.18,WNW,302,1.0,1.0,95,0.00,,,0.00,Wunderground v.1.15,2013-06-15 10:55:00,
2013-06-15 06:58:00,55.2,53.8,27.18,NW,315,0.0,-999.0,95,0.00,,,0.00,Wunderground v.1.15,2013-06-15 10:58:00,
2013-06-15 07:03:00,55.2,53.8,27.18,NW,315,0.0,-999.0,95,0.00,,,0.00,Wunderground v.1.15,2013-06-15 11:03:00,
2013-06-15 07:05:00,58.4,56.7,27.18,WNW,302,0.0,1.0,94,0.00,,,0.00,Wunderground v.1.15,2013-06-15 11:05:00,
2013-06-15 07:08:00,55.2,53.8,27.18,NW,315,0.0,-999.0,95,0.00,,,0.00,Wunderground v.1.15,2013-06-15 11:08:00,
2013-06-15 07:10:00,59.0,57.0,27.18,WNW,302,0.0,0.0,93,0.00,,,0.00,Wunderground v.1.15,2013-06-15 11:10:00,
2013-06-15 07:13:00,55.2,53.8,27.18,NW,315,0.0,-999.0,95,0.00,,,0.00,Wunderground v.1.15,2013-06-15 11:13:00,
2013-06-15 07:18:00,59.5,55.9,27.18,WNW,293,0.0,-999.0,88,0.00,,,0.00,Wunderground v.1.15,2013-06-15 11:18:00,
2013-06-15 07:20:00,59.9,57.0,27.18,WNW,302,0.0,0.0,90,0.00,,,0.00,Wunderground v.1.15,2013-06-15 11:20:00,
2013-06-15 07:23:00,59.5,55.9,27.18,WNW,293,0.0,-999.0,88,0.00,,,0.00,Wunderground v.1.15,2013-06-15 11:23:00,
2013-06-15 07:25:00,60.2,56.9,27.18,WNW,302,0.0,0.0,89,0.00,,,0.00,Wunderground v.1.15,2013-06-15 11:25:00,
2013-06-15 07:28:00,59.5,55.9,27.18,WNW,293,0.0,-999.0,88,0.00,,,0.00,Wunderground v.1.15,2013-06-15 11:28:00,
2013-06-15 07:30:00,60.5,56.9,27.18,WNW,302,0.0,0.0,88,0.00,,,0.00,Wunderground v.1.15,2013-06-15 11:30:00,
2013-06-15 07:33:00,59.5,55.9,27.18,WNW,293,0.0,-999.0,88,0.00,,,0.00,Wunderground v.1.15,2013-06-15 11:33:00,
2013-06-15 07:38:00,59.5,55.9,27.18,WNW,293,0.0,-999.0,88,0.00,,,0.00,Wunderground v.1.15,2013-06-15 11:38:00,
2013-06-15 07:40:00,61.6,57.7,27.18,WNW,302,0.0,3.0,87,0.00,,,0.00,Wunderground v.1.15,2013-06-15 11:40:00,
2013-06-15 07:43:00,59.5,55.9,27.18,WNW,293,0.0,-999.0,88,0.00,,,0.00,Wunderground v.1.15,2013-06-15 11:43:00,
2013-06-15 07:45:00,62.3,57.7,27.18,WNW,300,0.0,4.0,85,0.00,,,0.00,Wunderground v.1.15,2013-06-15 11:45:00,
2013-06-15 07:48:00,62.4,56.8,27.18,WNW,293,0.0,-999.0,82,0.00,,,0.00,Wunderground v.1.15,2013-06-15 11:48:00,
2013-06-15 07:53:00,62.4,56.8,27.18,WNW,293,0.0,-999.0,82,0.00,,,0.00,Wunderground v.1.15,2013-06-15 11:53:00,
2013-06-15 07:55:00,63.4,58.1,27.18,WNW,302,1.0,1.0,83,0.00,,,0.00,Wunderground v.1.15,2013-06-15 11:55:00,
2013-06-15 07:58:00,62.4,56.8,27.18,WNW,293,0.0,-999.0,82,0.00,,,0.00,Wunderground v.1.15,2013-06-15 11:58:00,
2013-06-15 08:00:00,63.9,58.3,27.18,WNW,302,0.0,0.0,82,0.00,,,0.00,Wunderground v.1.15,2013-06-15 12:00:00,
2013-06-15 08:03:00,62.4,56.8,27.18,WNW,293,0.0,-999.0,82,0.00,,,0.00,Wunderground v.1.15,2013-06-15 12:03:00,
2013-06-15 08:08:00,62.4,56.8,27.18,WNW,293,0.0,-999.0,82,0.00,,,0.00,Wunderground v.1.15,2013-06-15 12:08:00,
2013-06-15 08:10:00,64.9,58.6,27.18,SSW,211,2.0,2.0,80,0.00,,,0.00,Wunderground v.1.15,2013-06-15 12:10:00,
2013-06-15 08:13:00,62.4,56.8,27.18,WNW,293,0.0,-999.0,82,0.00,,,0.00,Wunderground v.1.15,2013-06-15 12:13:00,
2013-06-15 08:15:00,65.3,59.0,27.18,West,280,2.0,2.0,80,0.00,,,0.00,Wunderground v.1.15,2013-06-15 12:15:00,
2013-06-15 08:18:00,65.3,57.9,27.18,WSW,248,2.0,-999.0,77,0.00,,,0.00,Wunderground v.1.15,2013-06-15 12:18:00,
2013-06-15 08:23:00,65.3,57.9,27.18,WSW,248,2.0,-999.0,77,0.00,,,0.00,Wunderground v.1.15,2013-06-15 12:23:00,
2013-06-15 08:25:00,65.9,59.2,27.18,SW,217,2.0,2.0,79,0.00,,,0.00,Wunderground v.1.15,2013-06-15 12:25:00,
2013-06-15 08:28:00,65.3,57.9,27.18,WSW,248,2.0,-999.0,77,0.00,,,0.00,Wunderground v.1.15,2013-06-15 12:28:00,
2013-06-15 08:30:00,66.2,59.1,27.18,WSW,254,2.0,10.0,78,0.00,,,0.00,Wunderground v.1.15,2013-06-15 12:30:00,
2013-06-15 08:33:00,65.3,57.9,27.18,WSW,248,2.0,-999.0,77,0.00,,,0.00,Wunderground v.1.15,2013-06-15 12:33:00,
2013-06-15 08:35:00,66.3,58.9,27.18,SW,218,3.0,10.0,77,0.00,,,0.00,Wunderground v.1.15,2013-06-15 12:35:00,
2013-06-15 08:38:00,65.3,57.9,27.18,WSW,248,2.0,-999.0,77,0.00,,,0.00,Wunderground v.1.15,2013-06-15 12:38:00,
2013-06-15 08:43:00,65.3,57.9,27.18,WSW,248,2.0,-999.0,77,0.00,,,0.00,Wunderground v.1.15,2013-06-15 12:43:00,
2013-06-15 08:45:00,66.8,59.4,27.18,SW,234,3.0,5.0,77,0.00,,,0.00,Wunderground v.1.15,2013-06-15 12:45:00,
2013-06-15 08:48:00,66.9,58.7,27.18,WSW,248,2.0,-999.0,75,0.00,,,0.00,Wunderground v.1.15,2013-06-15 12:48:00,
2013-06-15 08:53:00,66.9,58.7,27.18,WSW,248,2.0,-999.0,75,0.00,,,0.00,Wunderground v.1.15,2013-06-15 12:53:00,
2013-06-15 08:55:00,67.4,59.9,27.18,WSW,251,2.0,3.0,77,0.00,,,0.00,Wunderground v.1.15,2013-06-15 12:55:00,
2013-06-15 08:58:00,66.9,58.7,27.18,WSW,248,2.0,-999.0,75,0.00,,,0.00,Wunderground v.1.15,2013-06-15 12:58:00,
2013-06-15 09:00:00,67.9,59.7,27.18,WNW,298,1.0,1.0,75,0.00,,,0.00,Wunderground v.1.15,2013-06-15 13:00:00,
2013-06-15 09:03:00,66.9,58.7,27.18,WSW,248,2.0,-999.0,75,0.00,,,0.00,Wunderground v.1.15,2013-06-15 13:03:00,
2013-06-15 09:08:00,66.9,58.7,27.18,WSW,248,2.0,-999.0,75,0.00,,,0.00,Wunderground v.1.15,2013-06-15 13:08:00,
2013-06-15 09:10:00,68.5,59.5,27.18,SW,219,1.0,1.0,73,0.00,,,0.00,Wunderground v.1.15,2013-06-15 13:10:00,
2013-06-15 09:13:00,66.9,58.7,27.18,WSW,248,2.0,-999.0,75,0.00,,,0.00,Wunderground v.1.15,2013-06-15 13:13:00,
2013-06-15 09:15:00,68.7,60.5,27.18,SW,234,1.0,1.0,75,0.00,,,0.00,Wunderground v.1.15,2013-06-15 13:15:00,
2013-06-15 09:18:00,68.9,60.3,27.18,SW,225,1.0,-999.0,74,0.00,,,0.00,Wunderground v.1.15,2013-06-15 13:18:00,
2013-06-15 09:23:00,68.9,60.3,27.18,SW,225,1.0,-999.0,74,0.00,,,0.00,Wunderground v.1.15,2013-06-15 13:23:00,
2013-06-15 09:25:00,69.7,61.0,27.18,SW,234,1.0,1.0,74,0.00,,,0.00,Wunderground v.1.15,2013-06-15 13:25:00,
2013-06-15 09:28:00,68.9,60.3,27.18,SW,225,1.0,-999.0,74,0.00,,,0.00,Wunderground v.1.15,2013-06-15 13:28:00,
2013-06-15 09:30:00,70.0,60.9,27.18,SW,234,1.0,1.0,73,0.00,,,0.00,Wunderground v.1.15,2013-06-15 13:30:00,
2013-06-15 09:33:00,68.9,60.3,27.18,SW,225,1.0,-999.0,74,0.00,,,0.00,Wunderground v.1.15,2013-06-15 13:33:00,
2013-06-15 09:38:00,68.9,60.3,27.18,SW,225,1.0,-999.0,74,0.00,,,0.00,Wunderground v.1.15,2013-06-15 13:38:00,
2013-06-15 09:40:00,71.3,61.0,27.18,SSW,211,0.0,0.0,70,0.00,,,0.00,Wunderground v.1.15,2013-06-15 13:40:00,
2013-06-15 09:43:00,68.9,60.3,27.18,SW,225,1.0,-999.0,74,0.00,,,0.00,Wunderground v.1.15,2013-06-15 13:43:00,
2013-06-15 09:45:00,71.4,60.3,27.18,SSE,162,1.0,1.0,68,0.00,,,0.00,Wunderground v.1.15,2013-06-15 13:45:00,
2013-06-15 09:48:00,71.3,61.4,27.18,South,180,1.0,-999.0,71,0.00,,,0.00,Wunderground v.1.15,2013-06-15 13:48:00,
2013-06-15 09:50:00,71.3,60.6,27.18,South,179,2.0,2.0,69,0.00,,,0.00,Wunderground v.1.15,2013-06-15 13:50:00,
2013-06-15 09:53:00,71.3,61.4,27.18,South,180,1.0,-999.0,71,0.00,,,0.00,Wunderground v.1.15,2013-06-15 13:53:00,
2013-06-15 09:58:00,71.3,61.4,27.18,South,180,1.0,-999.0,71,0.00,,,0.00,Wunderground v.1.15,2013-06-15 13:58:00,
2013-06-15 10:00:00,71.9,62.0,27.18,South,179,0.0,0.0,71,0.00,,,0.00,Wunderground v.1.15,2013-06-15 14:00:00,
2013-06-15 10:03:00,71.3,61.4,27.18,South,180,1.0,-999.0,71,0.00,,,0.00,Wunderground v.1.15,2013-06-15 14:03:00,
2013-06-15 10:05:00,72.3,61.6,27.18,South,181,0.0,1.0,69,0.00,,,0.00,Wunderground v.1.15,2013-06-15 14:05:00,
2013-06-15 10:08:00,71.3,61.4,27.18,South,180,1.0,-999.0,71,0.00,,,0.00,Wunderground v.1.15,2013-06-15 14:08:00,
2013-06-15 10:10:00,72.8,62.4,27.18,South,181,1.0,1.0,70,0.00,,,0.00,Wunderground v.1.15,2013-06-15 14:10:00,
2013-06-15 10:13:00,71.3,61.4,27.18,South,180,1.0,-999.0,71,0.00,,,0.00,Wunderground v.1.15,2013-06-15 14:13:00,
2013-06-15 10:18:00,72.6,61.4,27.18,SW,225,2.0,-999.0,68,0.00,,,0.00,Wunderground v.1.15,2013-06-15 14:18:00,
2013-06-15 10:20:00,72.6,62.7,27.18,SW,215,2.0,5.0,71,0.00,,,0.00,Wunderground v.1.15,2013-06-15 14:20:00,
2013-06-15 10:23:00,72.6,61.4,27.18,SW,225,2.0,-999.0,68,0.00,,,0.00,Wunderground v.1.15,2013-06-15 14:23:00,
2013-06-15 10:25:00,72.6,61.4,27.18,SW,232,3.0,5.0,68,0.00,,,0.00,Wunderground v.1.15,2013-06-15 14:25:00,
2013-06-15 10:28:00,72.6,61.4,27.18,SW,225,2.0,-999.0,68,0.00,,,0.00,Wunderground v.1.15,2013-06-15 14:28:00,
2013-06-15 10:30:00,72.7,61.9,27.18,SW,227,3.0,5.0,69,0.00,,,0.00,Wunderground v.1.15,2013-06-15 14:30:00,
2013-06-15 10:33:00,72.6,61.4,27.18,SW,225,2.0,-999.0,68,0.00,,,0.00,Wunderground v.1.15,2013-06-15 14:33:00,
2013-06-15 10:38:00,72.6,61.4,27.18,SW,225,2.0,-999.0,68,0.00,,,0.00,Wunderground v.1.15,2013-06-15 14:38:00,
2013-06-15 10:43:00,72.6,61.4,27.18,SW,225,2.0,-999.0,68,0.00,,,0.00,Wunderground v.1.15,2013-06-15 14:43:00,
2013-06-15 10:48:00,73.2,61.2,27.18,WSW,248,2.0,-999.0,66,0.00,,,0.00,Wunderground v.1.15,2013-06-15 14:48:00,
2013-06-15 10:53:00,73.2,61.2,27.18,WSW,248,2.0,-999.0,66,0.00,,,0.00,Wunderground v.1.15,2013-06-15 14:53:00,
2013-06-15 10:58:00,73.2,61.2,27.18,WSW,248,2.0,-999.0,66,0.00,,,0.00,Wunderground v.1.15,2013-06-15 14:58:00,
2013-06-15 11:03:00,73.2,61.2,27.18,WSW,248,2.0,-999.0,66,0.00,,,0.00,Wunderground v.1.15,2013-06-15 15:03:00,
2013-06-15 11:08:00,73.2,61.2,27.18,WSW,248,2.0,-999.0,66,0.00,,,0.00,Wunderground v.1.15,2013-06-15 15:08:00,
2013-06-15 11:13:00,73.2,61.2,27.18,WSW,248,2.0,-999.0,66,0.00,,,0.00,Wunderground v.1.15,2013-06-15 15:13:00,
2013-06-15 11:18:00,74.4,61.0,27.18,West,270,2.0,-999.0,63,0.00,,,0.00,Wunderground v.1.15,2013-06-15 15:18:00,
2013-06-15 11:23:00,74.4,61.0,27.18,West,270,2.0,-999.0,63,0.00,,,0.00,Wunderground v.1.15,2013-06-15 15:23:00,
2013-06-15 11:28:00,74.4,61.0,27.18,West,270,2.0,-999.0,63,0.00,,,0.00,Wunderground v.1.15,2013-06-15 15:28:00,
2013-06-15 11:33:00,74.4,61.0,27.18,West,270,2.0,-999.0,63,0.00,,,0.00,Wunderground v.1.15,2013-06-15 15:33:00,
2013-06-15 11:38:00,74.4,61.0,27.18,West,270,2.0,-999.0,63,0.00,,,0.00,Wunderground v.1.15,2013-06-15 15:38:00,
2013-06-15 11:43:00,74.4,61.0,27.18,West,270,2.0,-999.0,63,0.00,,,0.00,Wunderground v.1.15,2013-06-15 15:43:00,
2013-06-15 11:48:00,75.0,60.6,27.18,West,270,2.0,-999.0,61,0.00,,,0.00,Wunderground v.1.15,2013-06-15 15:48:00,
2013-06-15 11:53:00,75.0,60.6,27.18,West,270,2.0,-999.0,61,0.00,,,0.00,Wunderground v.1.15,2013-06-15 15:53:00,
2013-06-15 11:58:00,75.0,60.6,27.18,West,270,2.0,-999.0,61,0.00,,,0.00,Wunderground v.1.15,2013-06-15 15:58:00,
2013-06-15 12:03:00,75.0,60.6,27.18,West,270,2.0,-999.0,61,0.00,,,0.00,Wunderground v.1.15,2013-06-15 16:03:00,
2013-06-15 12:08:00,75.0,60.6,27.18,West,270,2.0,-999.0,61,0.00,,,0.00,Wunderground v.1.15,2013-06-15 16:08:00,
2013-06-15 12:13:00,75.0,60.6,27.18,West,270,2.0,-999.0,61,0.00,,,0.00,Wunderground v.1.15,2013-06-15 16:13:00,
2013-06-15 12:18:00,75.8,60.9,27.18,West,270,2.0,-999.0,60,0.00,,,0.00,Wunderground v.1.15,2013-06-15 16:18:00,
2013-06-15 12:23:00,75.8,60.9,27.18,West,270,2.0,-999.0,60,0.00,,,0.00,Wunderground v.1.15,2013-06-15 16:23:00,
2013-06-15 12:28:00,75.8,60.9,27.18,West,270,2.0,-999.0,60,0.00,,,0.00,Wunderground v.1.15,2013-06-15 16:28:00,
2013-06-15 12:33:00,75.8,60.9,27.18,West,270,2.0,-999.0,60,0.00,,,0.00,Wunderground v.1.15,2013-06-15 16:33:00,
2013-06-15 12:38:00,75.8,60.9,27.18,West,270,2.0,-999.0,60,0.00,,,0.00,Wunderground v.1.15,2013-06-15 16:38:00,
2013-06-15 12:43:00,75.8,60.9,27.18,West,270,2.0,-999.0,60,0.00,,,0.00,Wunderground v.1.15,2013-06-15 16:43:00,
2013-06-15 12:48:00,76.5,59.6,27.18,WSW,248,2.0,-999.0,56,0.00,,,0.00,Wunderground v.1.15,2013-06-15 16:48:00,
2013-06-15 12:53:00,76.5,59.6,27.18,WSW,248,2.0,-999.0,56,0.00,,,0.00,Wunderground v.1.15,2013-06-15 16:53:00,
2013-06-15 12:58:00,76.5,59.6,27.18,WSW,248,2.0,-999.0,56,0.00,,,0.00,Wunderground v.1.15,2013-06-15 16:58:00,
2013-06-15 13:03:00,76.5,59.6,27.18,WSW,248,2.0,-999.0,56,0.00,,,0.00,Wunderground v.1.15,2013-06-15 17:03:00,
2013-06-15 13:08:00,76.5,59.6,27.18,WSW,248,2.0,-999.0,56,0.00,,,0.00,Wunderground v.1.15,2013-06-15 17:08:00,
2013-06-15 13:13:00,76.5,59.6,27.18,WSW,248,2.0,-999.0,56,0.00,,,0.00,Wunderground v.1.15,2013-06-15 17:13:00,
2013-06-15 13:18:00,76.3,58.9,27.18,WSW,248,2.0,-999.0,55,0.00,,,0.00,Wunderground v.1.15,2013-06-15 17:18:00,
2013-06-15 13:23:00,76.3,58.9,27.18,WSW,248,2.0,-999.0,55,0.00,,,0.00,Wunderground v.1.15,2013-06-15 17:23:00,
2013-06-15 13:28:00,76.3,58.9,27.18,WSW,248,2.0,-999.0,55,0.00,,,0.00,Wunderground v.1.15,2013-06-15 17:28:00,
2013-06-15 13:33:00,76.3,58.9,27.18,WSW,248,2.0,-999.0,55,0.00,,,0.00,Wunderground v.1.15,2013-06-15 17:33:00,
2013-06-15 13:38:00,76.3,58.9,27.18,WSW,248,2.0,-999.0,55,0.00,,,0.00,Wunderground v.1.15,2013-06-15 17:38:00,
2013-06-15 13:43:00,76.3,58.9,27.18,WSW,248,2.0,-999.0,55,0.00,,,0.00,Wunderground v.1.15,2013-06-15 17:43:00,
2013-06-15 13:48:00,77.7,59.7,27.18,West,270,2.0,-999.0,54,0.00,,,0.00,Wunderground v.1.15,2013-06-15 17:48:00,
2013-06-15 13:53:00,77.7,59.7,27.18,West,270,2.0,-999.0,54,0.00,,,0.00,Wunderground v.1.15,2013-06-15 17:53:00,
2013-06-15 13:58:00,77.7,59.7,27.18,West,270,2.0,-999.0,54,0.00,,,0.00,Wunderground v.1.15,2013-06-15 17:58:00,
2013-06-15 14:03:00,77.7,59.7,27.18,West,270,2.0,-999.0,54,0.00,,,0.00,Wunderground v.1.15,2013-06-15 18:03:00,
2013-06-15 14:08:00,77.7,59.7,27.18,West,270,2.0,-999.0,54,0.00,,,0.00,Wunderground v.1.15,2013-06-15 18:08:00,
2013-06-15 14:13:00,77.7,59.7,27.18,West,270,2.0,-999.0,54,0.00,,,0.00,Wunderground v.1.15,2013-06-15 18:13:00,
2013-06-15 14:18:00,77.7,60.8,27.18,WSW,248,2.0,-999.0,56,0.00,,,0.00,Wunderground v.1.15,2013-06-15 18:18:00,
2013-06-15 14:23:00,77.7,60.8,27.18,WSW,248,2.0,-999.0,56,0.00,,,0.00,Wunderground v.1.15,2013-06-15 18:23:00,
2013-06-15 14:28:00,77.7,60.8,27.18,WSW,248,2.0,-999.0,56,0.00,,,0.00,Wunderground v.1.15,2013-06-15 18:28:00,
2013-06-15 14:33:00,77.7,60.8,27.18,WSW,248,2.0,-999.0,56,0.00,,,0.00,Wunderground v.1.15,2013-06-15 18:33:00,
2013-06-15 14:38:00,77.7,60.8,27.18,WSW,248,2.0,-999.0,56,0.00,,,0.00,Wunderground v.1.15,2013-06-15 18:38:00,
2013-06-15 14:43:00,77.7,60.8,27.18,WSW,248,2.0,-999.0,56,0.00,,,0.00,Wunderground v.1.15,2013-06-15 18:43:00,
2013-06-15 14:48:00,78.8,58.6,27.18,WSW,248,2.0,-999.0,50,0.00,,,0.00,Wunderground v.1.15,2013-06-15 18:48:00,
2013-06-15 14:53:00,78.8,58.6,27.18,WSW,248,2.0,-999.0,50,0.00,,,0.00,Wunderground v.1.15,2013-06-15 18:53:00,
2013-06-15 14:58:00,78.8,58.6,27.18,WSW,248,2.0,-999.0,50,0.00,,,0.00,Wunderground v.1.15,2013-06-15 18:58:00,
2013-06-15 15:03:00,78.8,58.6,27.18,WSW,248,2.0,-999.0,50,0.00,,,0.00,Wunderground v.1.15,2013-06-15 19:03:00,
2013-06-15 15:08:00,78.8,58.6,27.18,WSW,248,2.0,-999.0,50,0.00,,,0.00,Wunderground v.1.15,2013-06-15 19:08:00,
2013-06-15 15:13:00,78.8,58.6,27.18,WSW,248,2.0,-999.0,50,0.00,,,0.00,Wunderground v.1.15,2013-06-15 19:13:00,
2013-06-15 15:18:00,79.1,57.7,27.18,WSW,248,2.0,-999.0,48,0.00,,,0.00,Wunderground v.1.15,2013-06-15 19:18:00,
2013-06-15 15:23:00,79.1,57.7,27.18,WSW,248,2.0,-999.0,48,0.00,,,0.00,Wunderground v.1.15,2013-06-15 19:23:00,
2013-06-15 15:28:00,79.1,57.7,27.18,WSW,248,2.0,-999.0,48,0.00,,,0.00,Wunderground v.1.15,2013-06-15 19:28:00,
2013-06-15 15:33:00,79.1,57.7,27.18,WSW,248,2.0,-999.0,48,0.00,,,0.00,Wunderground v.1.15,2013-06-15 19:33:00,
2013-06-15 15:38:00,79.1,57.7,27.18,WSW,248,2.0,-999.0,48,0.00,,,0.00,Wunderground v.1.15,2013-06-15 19:38:00,
2013-06-15 15:43:00,79.1,57.7,27.18,WSW,248,2.0,-999.0,48,0.00,,,0.00,Wunderground v.1.15,2013-06-15 19:43:00,
2013-06-15 15:48:00,79.7,58.3,27.18,WSW,248,2.0,-999.0,48,0.00,,,0.00,Wunderground v.1.15,2013-06-15 19:48:00,
2013-06-15 15:53:00,79.7,58.3,27.18,WSW,248,2.0,-999.0,48,0.00,,,0.00,Wunderground v.1.15,2013-06-15 19:53:00,
2013-06-15 15:58:00,79.7,58.3,27.18,WSW,248,2.0,-999.0,48,0.00,,,0.00,Wunderground v.1.15,2013-06-15 19:58:00,
2013-06-15 16:03:00,79.7,58.3,27.18,WSW,248,2.0,-999.0,48,0.00,,,0.00,Wunderground v.1.15,2013-06-15 20:03:00,
2013-06-15 16:08:00,79.7,58.3,27.18,WSW,248,2.0,-999.0,48,0.00,,,0.00,Wunderground v.1.15,2013-06-15 20:08:00,
2013-06-15 16:13:00,79.7,58.3,27.18,WSW,248,2.0,-999.0,48,0.00,,,0.00,Wunderground v.1.15,2013-06-15 20:13:00,
2013-06-15 16:18:00,80.0,59.1,27.18,WSW,248,2.0,-999.0,49,0.00,,,0.00,Wunderground v.1.15,2013-06-15 20:18:00,
2013-06-15 16:23:00,80.0,59.1,27.18,WSW,248,2.0,-999.0,49,0.00,,,0.00,Wunderground v.1.15,2013-06-15 20:23:00,
2013-06-15 16:28:00,80.0,59.1,27.18,WSW,248,2.0,-999.0,49,0.00,,,0.00,Wunderground v.1.15,2013-06-15 20:28:00,
2013-06-15 16:33:00,80.0,59.1,27.18,WSW,248,2.0,-999.0,49,0.00,,,0.00,Wunderground v.1.15,2013-06-15 20:33:00,
2013-06-15 16:38:00,80.0,59.1,27.18,WSW,248,2.0,-999.0,49,0.00,,,0.00,Wunderground v.1.15,2013-06-15 20:38:00,
2013-06-15 16:43:00,80.0,59.1,27.18,WSW,248,2.0,-999.0,49,0.00,,,0.00,Wunderground v.1.15,2013-06-15 20:43:00,
2013-06-15 16:48:00,80.0,59.7,27.18,WSW,248,1.0,-999.0,50,0.00,,,0.00,Wunderground v.1.15,2013-06-15 20:48:00,
2013-06-15 16:53:00,80.0,59.7,27.18,WSW,248,1.0,-999.0,50,0.00,,,0.00,Wunderground v.1.15,2013-06-15 20:53:00,
2013-06-15 16:58:00,80.0,59.7,27.18,WSW,248,1.0,-999.0,50,0.00,,,0.00,Wunderground v.1.15,2013-06-15 20:58:00,
2013-06-15 17:03:00,80.0,59.7,27.18,WSW,248,1.0,-999.0,50,0.00,,,0.00,Wunderground v.1.15,2013-06-15 21:03:00,
2013-06-15 17:08:00,80.0,59.7,27.18,WSW,248,1.0,-999.0,50,0.00,,,0.00,Wunderground v.1.15,2013-06-15 21:08:00,
2013-06-15 17:13:00,80.0,59.7,27.18,WSW,248,1.0,-999.0,50,0.00,,,0.00,Wunderground v.1.15,2013-06-15 21:13:00,
2013-06-15 17:18:00,79.8,59.5,27.18,WSW,248,2.0,-999.0,50,0.00,,,0.00,Wunderground v.1.15,2013-06-15 21:18:00,
2013-06-15 17:23:00,79.8,59.5,27.18,WSW,248,2.0,-999.0,50,0.00,,,0.00,Wunderground v.1.15,2013-06-15 21:23:00,
2013-06-15 17:28:00,79.8,59.5,27.18,WSW,248,2.0,-999.0,50,0.00,,,0.00,Wunderground v.1.15,2013-06-15 21:28:00,
2013-06-15 17:33:00,79.8,59.5,27.18,WSW,248,2.0,-999.0,50,0.00,,,0.00,Wunderground v.1.15,2013-06-15 21:33:00,
2013-06-15 17:38:00,79.8,59.5,27.18,WSW,248,2.0,-999.0,50,0.00,,,0.00,Wunderground v.1.15,2013-06-15 21:38:00,
2013-06-15 17:43:00,79.8,59.5,27.18,WSW,248,2.0,-999.0,50,0.00,,,0.00,Wunderground v.1.15,2013-06-15 21:43:00,
2013-06-15 17:48:00,78.8,59.7,27.18,West,270,1.0,-999.0,52,0.00,,,0.00,Wunderground v.1.15,2013-06-15 21:48:00,
2013-06-15 17:53:00,78.8,59.7,27.18,West,270,1.0,-999.0,52,0.00,,,0.00,Wunderground v.1.15,2013-06-15 21:53:00,
2013-06-15 17:58:00,78.8,59.7,27.18,West,270,1.0,-999.0,52,0.00,,,0.00,Wunderground v.1.15,2013-06-15 21:58:00,
2013-06-15 18:03:00,78.8,59.7,27.18,West,270,1.0,-999.0,52,0.00,,,0.00,Wunderground v.1.15,2013-06-15 22:03:00,
2013-06-15 18:08:00,78.8,59.7,27.18,West,270,1.0,-999.0,52,0.00,,,0.00,Wunderground v.1.15,2013-06-15 22:08:00,
2013-06-15 18:13:00,78.8,59.7,27.18,West,270,1.0,-999.0,52,0.00,,,0.00,Wunderground v.1.15,2013-06-15 22:13:00,
2013-06-15 18:18:00,76.8,60.4,27.18,West,270,1.0,-999.0,57,0.00,,,0.00,Wunderground v.1.15,2013-06-15 22:18:00,
2013-06-15 18:23:00,76.8,60.4,27.18,West,270,1.0,-999.0,57,0.00,,,0.00,Wunderground v.1.15,2013-06-15 22:23:00,
2013-06-15 18:28:00,76.8,60.4,27.18,West,270,1.0,-999.0,57,0.00,,,0.00,Wunderground v.1.15,2013-06-15 22:28:00,
2013-06-15 18:33:00,76.8,60.4,27.18,West,270,1.0,-999.0,57,0.00,,,0.00,Wunderground v.1.15,2013-06-15 22:33:00,
2013-06-15 18:38:00,76.8,60.4,27.18,West,270,1.0,-999.0,57,0.00,,,0.00,Wunderground v.1.15,2013-06-15 22:38:00,
2013-06-15 18:43:00,76.8,60.4,27.18,West,270,1.0,-999.0,57,0.00,,,0.00,Wunderground v.1.15,2013-06-15 22:43:00,
2013-06-15 18:48:00,76.1,61.7,27.18,West,270,0.0,-999.0,61,0.00,,,0.00,Wunderground v.1.15,2013-06-15 22:48:00,
2013-06-15 18:53:00,76.1,61.7,27.18,West,270,0.0,-999.0,61,0.00,,,0.00,Wunderground v.1.15,2013-06-15 22:53:00,
2013-06-15 18:58:00,76.1,61.7,27.18,West,270,0.0,-999.0,61,0.00,,,0.00,Wunderground v.1.15,2013-06-15 22:58:00,
2013-06-15 19:03:00,76.1,61.7,27.18,West,270,0.0,-999.0,61,0.00,,,0.00,Wunderground v.1.15,2013-06-15 23:03:00,
2013-06-15 19:08:00,76.1,61.7,27.18,West,270,0.0,-999.0,61,0.00,,,0.00,Wunderground v.1.15,2013-06-15 23:08:00,
2013-06-15 19:13:00,76.1,61.7,27.18,West,270,0.0,-999.0,61,0.00,,,0.00,Wunderground v.1.15,2013-06-15 23:13:00,
2013-06-15 19:18:00,75.2,64.3,27.18,N/A,-737280,0.0,-999.0,69,0.00,,,0.00,Wunderground v.1.15,2013-06-15 23:18:00,
2013-06-15 19:23:00,75.2,64.3,27.18,N/A,-737280,0.0,-999.0,69,0.00,,,0.00,Wunderground v.1.15,2013-06-15 23:23:00,
2013-06-15 19:28:00,75.2,64.3,27.18,N/A,-737280,0.0,-999.0,69,0.00,,,0.00,Wunderground v.1.15,2013-06-15 23:28:00,
2013-06-15 19:33:00,75.2,64.3,27.18,N/A,-737280,0.0,-999.0,69,0.00,,,0.00,Wunderground v.1.15,2013-06-15 23:33:00,
2013-06-15 19:38:00,75.2,64.3,27.18,N/A,-737280,0.0,-999.0,69,0.00,,,0.00,Wunderground v.1.15,2013-06-15 23:38:00,
2013-06-15 19:43:00,75.2,64.3,27.18,N/A,-737280,0.0,-999.0,69,0.00,,,0.00,Wunderground v.1.15,2013-06-15 23:43:00,
2013-06-15 19:48:00,73.8,64.2,27.18,N/A,-737280,0.0,-999.0,72,0.00,,,0.00,Wunderground v.1.15,2013-06-15 23:48:00,
2013-06-15 19:53:00,73.8,64.2,27.18,N/A,-737280,0.0,-999.0,72,0.00,,,0.00,Wunderground v.1.15,2013-06-15 23:53:00,
2013-06-15 19:58:00,73.8,64.2,27.18,N/A,-737280,0.0,-999.0,72,0.00,,,0.00,Wunderground v.1.15,2013-06-15 23:58:00,
2013-06-15 20:03:00,73.8,64.2,27.18,N/A,-737280,0.0,-999.0,72,0.00,,,0.00,Wunderground v.1.15,2013-06-16 00:03:00,
2013-06-15 20:08:00,73.8,64.2,27.18,N/A,-737280,0.0,-999.0,72,0.00,,,0.00,Wunderground v.1.15,2013-06-16 00:08:00,
2013-06-15 20:13:00,73.8,64.2,27.18,N/A,-737280,0.0,-999.0,72,0.00,,,0.00,Wunderground v.1.15,2013-06-16 00:13:00,
2013-06-15 20:18:00,71.3,63.3,27.18,N/A,-737280,0.0,-999.0,76,0.00,,,0.00,Wunderground v.1.15,2013-06-16 00:18:00,
2013-06-15 20:23:00,71.3,63.3,27.18,N/A,-737280,0.0,-999.0,76,0.00,,,0.00,Wunderground v.1.15,2013-06-16 00:23:00,
2013-06-15 20:28:00,71.3,63.3,27.18,N/A,-737280,0.0,-999.0,76,0.00,,,0.00,Wunderground v.1.15,2013-06-16 00:28:00,
2013-06-15 20:33:00,71.3,63.3,27.18,N/A,-737280,0.0,-999.0,76,0.00,,,0.00,Wunderground v.1.15,2013-06-16 00:33:00,
2013-06-15 20:38:00,71.3,63.3,27.18,N/A,-737280,0.0,-999.0,76,0.00,,,0.00,Wunderground v.1.15,2013-06-16 00:38:00,
2013-06-15 20:43:00,71.3,63.3,27.18,N/A,-737280,0.0,-999.0,76,0.00,,,0.00,Wunderground v.1.15,2013-06-16 00:43:00,
2013-06-15 20:48:00,68.5,61.4,27.18,N/A,-737280,0.0,-999.0,78,0.00,,,0.00,Wunderground v.1.15,2013-06-16 00:48:00,
2013-06-15 20:53:00,68.5,61.4,27.18,N/A,-737280,0.0,-999.0,78,0.00,,,0.00,Wunderground v.1.15,2013-06-16 00:53:00,
2013-06-15 20:58:00,68.5,61.4,27.18,N/A,-737280,0.0,-999.0,78,0.00,,,0.00,Wunderground v.1.15,2013-06-16 00:58:00,
2013-06-15 21:03:00,68.5,61.4,27.18,N/A,-737280,0.0,-999.0,78,0.00,,,0.00,Wunderground v.1.15,2013-06-16 01:03:00,
2013-06-15 21:08:00,68.5,61.4,27.18,N/A,-737280,0.0,-999.0,78,0.00,,,0.00,Wunderground v.1.15,2013-06-16 01:08:00,
2013-06-15 21:13:00,68.5,61.4,27.18,N/A,-737280,0.0,-999.0,78,0.00,,,0.00,Wunderground v.1.15,2013-06-16 01:13:00,
2013-06-15 21:18:00,65.9,60.2,27.18,N/A,-737280,0.0,-999.0,82,0.00,,,0.00,Wunderground v.1.15,2013-06-16 01:18:00,
2013-06-15 21:23:00,65.9,60.2,27.18,N/A,-737280,0.0,-999.0,82,0.00,,,0.00,Wunderground v.1.15,2013-06-16 01:23:00,
2013-06-15 21:28:00,65.9,60.2,27.18,N/A,-737280,0.0,-999.0,82,0.00,,,0.00,Wunderground v.1.15,2013-06-16 01:28:00,
2013-06-15 21:33:00,65.9,60.2,27.18,N/A,-737280,0.0,-999.0,82,0.00,,,0.00,Wunderground v.1.15,2013-06-16 01:33:00,
2013-06-15 21:38:00,65.9,60.2,27.18,N/A,-737280,0.0,-999.0,82,0.00,,,0.00,Wunderground v.1.15,2013-06-16 01:38:00,
2013-06-15 21:43:00,65.9,60.2,27.18,N/A,-737280,0.0,-999.0,82,0.00,,,0.00,Wunderground v.1.15,2013-06-16 01:43:00,
2013-06-15 21:48:00,63.4,58.8,27.18,N/A,-737280,0.0,-999.0,85,0.00,,,0.00,Wunderground v.1.15,2013-06-16 01:48:00,
2013-06-15 21:53:00,63.4,58.8,27.18,N/A,-737280,0.0,-999.0,85,0.00,,,0.00,Wunderground v.1.15,2013-06-16 01:53:00,
2013-06-15 21:58:00,63.4,58.8,27.18,N/A,-737280,0.0,-999.0,85,0.00,,,0.00,Wunderground v.1.15,2013-06-16 01:58:00,
2013-06-15 22:03:00,63.4,58.8,27.18,N/A,-737280,0.0,-999.0,85,0.00,,,0.00,Wunderground v.1.15,2013-06-16 02:03:00,
2013-06-15 22:08:00,63.4,58.8,27.18,N/A,-737280,0.0,-999.0,85,0.00,,,0.00,Wunderground v.1.15,2013-06-16 02:08:00,
2013-06-15 22:13:00,63.4,58.8,27.18,N/A,-737280,0.0,-999.0,85,0.00,,,0.00,Wunderground v.1.15,2013-06-16 02:13:00,
2013-06-15 22:18:00,61.7,57.8,27.18,N/A,-737280,0.0,-999.0,87,0.00,,,0.00,Wunderground v.1.15,2013-06-16 02:18:00,
2013-06-15 22:23:00,61.7,57.8,27.18,N/A,-737280,0.0,-999.0,87,0.00,,,0.00,Wunderground v.1.15,2013-06-16 02:23:00,
2013-06-15 22:28:00,61.7,57.8,27.18,N/A,-737280,0.0,-999.0,87,0.00,,,0.00,Wunderground v.1.15,2013-06-16 02:28:00,
2013-06-15 22:33:00,61.7,57.8,27.18,N/A,-737280,0.0,-999.0,87,0.00,,,0.00,Wunderground v.1.15,2013-06-16 02:33:00,
2013-06-15 22:38:00,61.7,57.8,27.18,N/A,-737280,0.0,-999.0,87,0.00,,,0.00,Wunderground v.1.15,2013-06-16 02:38:00,
2013-06-15 22:43:00,61.7,57.8,27.18,N/A,-737280,0.0,-999.0,87,0.00,,,0.00,Wunderground v.1.15,2013-06-16 02:43:00,
2013-06-15 22:48:00,60.4,57.1,27.18,N/A,-737280,0.0,-999.0,89,0.00,,,0.00,Wunderground v.1.15,2013-06-16 02:48:00,
2013-06-15 22:53:00,60.4,57.1,27.18,N/A,-737280,0.0,-999.0,89,0.00,,,0.00,Wunderground v.1.15,2013-06-16 02:53:00,
2013-06-15 22:58:00,60.4,57.1,27.18,N/A,-737280,0.0,-999.0,89,0.00,,,0.00,Wunderground v.1.15,2013-06-16 02:58:00,
2013-06-15 23:03:00,60.4,57.1,27.18,N/A,-737280,0.0,-999.0,89,0.00,,,0.00,Wunderground v.1.15,2013-06-16 03:03:00,
2013-06-15 23:08:00,60.4,57.1,27.18,N/A,-737280,0.0,-999.0,89,0.00,,,0.00,Wunderground v.1.15,2013-06-16 03:08:00,
2013-06-15 23:13:00,60.4,57.1,27.18,N/A,-737280,0.0,-999.0,89,0.00,,,0.00,Wunderground v.1.15,2013-06-16 03:13:00,
2013-06-15 23:18:00,59.3,56.4,27.18,N/A,-737280,0.0,-999.0,90,0.00,,,0.00,Wunderground v.1.15,2013-06-16 03:18:00,
2013-06-15 23:23:00,59.3,56.4,27.18,N/A,-737280,0.0,-999.0,90,0.00,,,0.00,Wunderground v.1.15,2013-06-16 03:23:00,
2013-06-15 23:28:00,59.3,56.4,27.18,N/A,-737280,0.0,-999.0,90,0.00,,,0.00,Wunderground v.1.15,2013-06-16 03:28:00,
2013-06-15 23:33:00,59.3,56.4,27.18,N/A,-737280,0.0,-999.0,90,0.00,,,0.00,Wunderground v.1.15,2013-06-16 03:33:00,
2013-06-15 23:38:00,59.3,56.4,27.18,N/A,-737280,0.0,-999.0,90,0.00,,,0.00,Wunderground v.1.15,2013-06-16 03:38:00,
2013-06-15 23:43:00,59.3,56.4,27.18,N/A,-737280,0.0,-999.0,90,0.00,,,0.00,Wunderground v.1.15,2013-06-16 03:43:00,
2013-06-15 23:48:00,58.7,56.1,27.18,N/A,-737280,0.0,-999.0,91,0.00,,,0.00,Wunderground v.1.15,2013-06-16 03:48:00,
2013-06-15 23:53:00,58.7,56.1,27.18,N/A,-737280,0.0,-999.0,91,0.00,,,0.00,Wunderground v.1.15,2013-06-16 03:53:00,
2013-06-15 23:58:00,58.7,56.1,27.18,N/A,-737280,0.0,-999.0,91,0.00,,,0.00,Wunderground v.1.15,2013-06-16 03:58:00,